createdAt,value
2017-07-09T00:00:29.146Z,48.97
2017-07-09T00:02:53.890Z,49.34
2017-07-09T00:05:18.637Z,49.83
2017-07-09T00:07:43.379Z,49.92
2017-07-09T00:10:08.104Z,50.21
2017-07-09T00:12:32.835Z,50.12
2017-07-09T00:14:57.554Z,50.51
2017-07-09T00:17:05.262Z,50.58
2017-07-09T00:19:29.926Z,50.12
2017-07-09T00:21:54.635Z,50.41
2017-07-09T00:24:20.418Z,50.51
2017-07-09T00:26:45.155Z,50.78
2017-07-09T00:29:09.809Z,50.7
2017-07-09T00:31:34.507Z,50.51
2017-07-09T00:33:50.702Z,50.29
2017-07-09T00:36:15.384Z,50.51
2017-07-09T00:38:40.061Z,50.51
2017-07-09T00:41:04.734Z,50.51
2017-07-09T00:43:29.424Z,50.12
2017-07-09T00:45:54.121Z,50.12
2017-07-09T00:48:18.887Z,50.21
2017-07-09T00:50:43.583Z,50.21
2017-07-09T00:52:59.785Z,50.7
2017-07-09T00:55:24.424Z,50.12
2017-07-09T00:57:40.648Z,50.21
2017-07-09T01:00:07.425Z,49.92
2017-07-09T01:02:32.104Z,50.31
2017-07-09T01:04:48.318Z,50.41
2017-07-09T01:07:04.474Z,50.38
2017-07-09T01:09:20.699Z,50.26
2017-07-09T01:11:45.405Z,50.36
2017-07-09T01:14:01.552Z,49.95
2017-07-09T01:16:26.143Z,50.56
2017-07-09T01:18:50.786Z,50.36
2017-07-09T01:21:15.432Z,50.34
2017-07-09T01:23:31.614Z,50.43
2017-07-09T01:25:56.253Z,50.34
2017-07-09T01:28:12.393Z,50.04
2017-07-09T01:30:37.007Z,49.27
2017-07-09T01:33:01.581Z,49.37
2017-07-09T01:35:26.224Z,49.56
2017-07-09T01:37:50.851Z,49.07
2017-07-09T01:40:15.478Z,48.32
2017-07-09T01:42:40.148Z,47.74
2017-07-09T01:45:04.767Z,47.83
2017-07-09T01:47:29.405Z,48.32
2017-07-09T01:49:30.961Z,48.13
2017-07-09T01:51:55.629Z,50.65
2017-07-09T01:54:20.208Z,52.11
2017-07-09T01:56:44.824Z,53.64
2017-07-09T01:59:09.428Z,54.22
2017-07-09T02:01:25.521Z,54.78
2017-07-09T02:03:50.100Z,56.89
2017-07-09T02:06:14.712Z,56.98
2017-07-09T02:08:39.316Z,57.08
2017-07-09T02:11:03.928Z,57.57
2017-07-09T02:13:28.494Z,57.57
2017-07-09T02:15:44.577Z,57.47
2017-07-09T02:18:09.098Z,57.86
2017-07-09T02:20:34.724Z,57.57
2017-07-09T02:22:59.329Z,57.76
2017-07-09T02:25:23.820Z,58.54
2017-07-09T02:27:48.354Z,57.86
2017-07-09T02:30:12.899Z,57.86
2017-07-09T02:32:28.972Z,58.83
2017-07-09T02:34:53.508Z,58.44
2017-07-09T02:36:55.596Z,59.09
2017-07-09T02:39:20.124Z,60.35
2017-07-09T02:41:44.645Z,62.59
2017-07-09T02:44:00.676Z,64.2
2017-07-09T02:46:25.150Z,63.46
2017-07-09T02:48:57.399Z,62.33
2017-07-09T02:51:13.415Z,61.46
2017-07-09T02:53:37.881Z,61.46
2017-07-09T02:55:54.948Z,61.26
2017-07-09T02:58:19.316Z,60.81
2017-07-09T03:00:43.767Z,60.91
2017-07-09T03:03:08.218Z,60.64
2017-07-09T03:05:32.676Z,61
2017-07-09T03:07:58.165Z,60.64
2017-07-09T03:10:14.197Z,60.94
2017-07-09T03:12:24.240Z,61.1
2017-07-09T03:14:48.761Z,60.84
2017-07-09T03:17:04.784Z,60.84
2017-07-09T03:19:20.806Z,61.22
2017-07-09T03:21:28.363Z,61.22
2017-07-09T03:23:52.848Z,60.87
2017-07-09T03:26:17.335Z,61.16
2017-07-09T03:28:41.838Z,60.28
2017-07-09T03:31:06.314Z,60.09
2017-07-09T03:33:30.834Z,60.77
2017-07-09T03:35:55.336Z,60
2017-07-09T03:38:19.881Z,59.92
2017-07-09T03:40:44.422Z,61.55
2017-07-09T03:43:08.947Z,60.77
2017-07-09T03:45:33.446Z,60.38
2017-07-09T03:48:04.656Z,60.77
2017-07-09T03:50:06.159Z,60.9
2017-07-09T03:51:59.159Z,60.9
2017-07-09T03:54:23.782Z,61
2017-07-09T03:56:48.283Z,61.19
2017-07-09T03:59:12.831Z,60.87
2017-07-09T04:01:20.455Z,61.94
2017-07-09T04:03:30.528Z,62.71
2017-07-09T04:05:55.043Z,62.13
2017-07-09T04:08:19.595Z,62.42
2017-07-09T04:10:44.149Z,62.71
2017-07-09T04:13:08.683Z,62.35
2017-07-09T04:15:33.185Z,62.45
2017-07-09T04:17:57.740Z,62.45
2017-07-09T04:20:22.272Z,61.58
2017-07-09T04:22:46.774Z,62.91
2017-07-09T04:25:11.313Z,62.07
2017-07-09T04:27:27.398Z,61.58
2017-07-09T04:29:43.484Z,61.58
2017-07-09T04:33:35.412Z,61.8
2017-07-09T04:35:59.966Z,61.51
2017-07-09T04:38:24.505Z,62.35
2017-07-09T04:40:49.018Z,62.26
2017-07-09T04:43:13.548Z,61.58
2017-07-09T04:45:21.112Z,61.58
2017-07-09T04:47:45.618Z,61.68
2017-07-09T04:50:10.131Z,62.81
2017-07-09T04:52:26.193Z,61.77
2017-07-09T04:54:50.671Z,63.39
2017-07-09T04:57:15.217Z,62.42
2017-07-09T04:59:39.770Z,63.29
2017-07-09T05:01:49.847Z,62.62
2017-07-09T05:04:14.399Z,62.91
2017-07-09T05:06:38.954Z,62.26
2017-07-09T05:09:03.508Z,61.29
2017-07-09T05:11:28.075Z,61.29
2017-07-09T05:13:44.143Z,62.65
2017-07-09T05:16:08.695Z,61.71
2017-07-09T05:18:33.239Z,60.93
2017-07-09T05:20:57.739Z,60.18
2017-07-09T05:23:22.285Z,59.69
2017-07-09T05:25:46.845Z,59.89
2017-07-09T05:28:11.422Z,61
2017-07-09T05:30:27.534Z,60.18
2017-07-09T05:32:43.593Z,57.97
2017-07-09T05:34:51.242Z,57.68
2017-07-09T05:37:15.840Z,57.03
2017-07-09T05:39:40.471Z,57.81
2017-07-09T05:41:56.628Z,57.87
2017-07-09T05:44:07.218Z,57.61
2017-07-09T05:46:31.906Z,59.31
2017-07-09T05:48:56.534Z,61.97
2017-07-09T05:51:21.179Z,60.38
2017-07-09T05:53:45.813Z,59.11
2017-07-09T05:56:10.429Z,59.43
2017-07-09T05:58:35.044Z,59.05
2017-07-09T06:00:51.197Z,58.65
2017-07-09T06:03:07.321Z,58.62
2017-07-09T06:05:31.902Z,59.01
2017-07-09T06:07:56.512Z,59.23
2017-07-09T06:10:04.168Z,59.05
2017-07-09T06:12:28.748Z,58.69
2017-07-09T06:14:53.325Z,57.32
2017-07-09T06:17:17.901Z,56.96
2017-07-09T06:19:42.521Z,56.67
2017-07-09T06:22:07.180Z,56.37
2017-07-09T06:26:56.011Z,57.51
2017-07-09T06:29:31.959Z,57.61
2017-07-09T06:31:56.869Z,58.65
2017-07-09T06:34:26.068Z,59.14
2017-07-09T06:37:08.745Z,60.38
2017-07-09T06:39:33.275Z,58.46
2017-07-09T06:41:58.676Z,57.74
2017-07-09T06:44:23.987Z,56.76
2017-07-09T06:46:29.153Z,55.91
2017-07-09T06:48:53.973Z,56.3
2017-07-09T06:50:56.813Z,54.97
2017-07-09T06:53:21.612Z,54.58
2017-07-09T06:55:46.487Z,54.7
2017-07-09T06:58:12.191Z,53.36
2017-07-09T07:00:37.358Z,53.17
2017-07-09T07:03:02.151Z,53.73
2017-07-09T07:05:26.907Z,51.92
2017-07-09T07:07:51.783Z,52.02
2017-07-09T07:10:16.564Z,51.17
2017-07-09T07:12:42.620Z,51.27
2017-07-09T07:15:10.618Z,49.48
2017-07-09T07:17:35.588Z,47.5
2017-07-09T07:20:00.450Z,46.74
2017-07-09T07:22:27.569Z,46.74
2017-07-09T07:24:52.761Z,48.55
2017-07-09T07:27:17.675Z,48.65
2017-07-09T07:29:43.443Z,48.85
2017-07-09T07:32:08.438Z,48.75
2017-07-09T07:34:33.592Z,48.26
2017-07-09T07:36:58.834Z,49.51
2017-07-09T07:39:23.975Z,47.79
2017-07-09T07:41:49.460Z,47.89
2017-07-09T07:44:15.252Z,46.64
2017-07-09T07:46:40.224Z,43.9
2017-07-09T07:49:06.113Z,43.32
2017-07-09T07:51:31.437Z,43.32
2017-07-09T07:53:57.059Z,43.19
2017-07-09T07:56:22.516Z,43.86
2017-07-09T07:58:47.943Z,42.38
2017-07-09T08:01:13.282Z,40.76
2017-07-09T08:03:38.852Z,38.93
2017-07-09T08:06:04.987Z,35.12
2017-07-09T08:08:31.576Z,33.67
2017-07-09T08:12:33.677Z,37.29
2017-07-09T08:15:00.358Z,41.11
2017-07-09T08:17:25.413Z,41.29
2017-07-09T08:19:53.122Z,37.96
2017-07-09T08:22:21.610Z,34.73
2017-07-09T08:24:48.186Z,31.68
2017-07-09T08:27:15.571Z,35.07
2017-07-09T08:29:42.181Z,35.19
2017-07-09T08:32:12.263Z,33.28
2017-07-09T08:34:39.168Z,28.87
2017-07-09T08:37:07.613Z,27.5
2017-07-09T08:39:34.950Z,29.63
2017-07-09T08:42:03.574Z,31.72
2017-07-09T08:44:28.581Z,36.78
2017-07-09T08:46:58.195Z,35.35
2017-07-09T08:49:28.833Z,31.26
2017-07-09T08:53:48.271Z,28.77
2017-07-09T08:56:24.288Z,30.57
2017-07-09T08:58:52.518Z,28.85
2017-07-09T09:01:20.686Z,29.11
2017-07-09T09:03:55.772Z,26.04
2017-07-09T09:08:12.086Z,25.7
2017-07-09T09:11:23.877Z,24.51
2017-07-09T09:19:43.696Z,25.56
2017-07-09T09:22:12.965Z,23.23
2017-07-09T09:24:39.283Z,25.43
2017-07-09T09:27:07.848Z,23.97
2017-07-09T09:29:35.995Z,25.98
2017-07-09T09:32:03.556Z,24.66
2017-07-09T09:34:30.543Z,24.45
2017-07-09T09:38:38.132Z,28.3
2017-07-09T09:41:12.067Z,29.27
2017-07-09T09:43:40.701Z,29.14
2017-07-09T09:46:00.067Z,28.49
2017-07-09T09:48:27.547Z,24.35
2017-07-09T09:51:02.692Z,27.04
2017-07-09T09:53:18.476Z,27.14
2017-07-09T09:56:06.201Z,27.8
2017-07-09T09:58:32.870Z,27.05
2017-07-09T10:01:00.086Z,25.41
2017-07-09T10:03:26.081Z,24.74
2017-07-09T10:05:52.332Z,26.06
2017-07-09T10:08:18.322Z,25.77
2017-07-09T10:10:44.866Z,25.67
2017-07-09T10:13:10.890Z,25.55
2017-07-09T10:15:37.360Z,27.39
2017-07-09T10:18:03.189Z,28.28
2017-07-09T10:20:29.218Z,29.63
2017-07-09T10:22:55.284Z,28.19
2017-07-09T10:25:21.422Z,28.27
2017-07-09T10:27:47.293Z,28.14
2017-07-09T10:30:13.115Z,31.41
2017-07-09T10:32:38.865Z,31.99
2017-07-09T10:35:04.599Z,31.81
2017-07-09T10:37:30.333Z,34.3
2017-07-09T10:39:56.018Z,33.44
2017-07-09T10:42:13.166Z,33.8
2017-07-09T10:44:38.891Z,32.4
2017-07-09T10:47:04.578Z,31.62
2017-07-09T10:49:30.263Z,30.27
2017-07-09T10:51:55.845Z,29.97
2017-07-09T10:54:21.693Z,29.1
2017-07-09T10:56:47.281Z,29.03
2017-07-09T10:59:13.157Z,28.23
2017-07-09T11:01:38.667Z,27.36
2017-07-09T11:04:04.402Z,26.87
2017-07-09T11:06:30.414Z,27.86
2017-07-09T11:08:56.400Z,28.13
2017-07-09T11:11:29.270Z,29.25
2017-07-09T11:14:02.257Z,28.32
2017-07-09T11:18:08.998Z,27.26
2017-07-09T11:20:34.777Z,28.14
2017-07-09T11:23:00.530Z,28.41
2017-07-09T11:25:26.674Z,28.09
2017-07-09T11:28:05.074Z,28.66
2017-07-09T11:30:33.881Z,29.06
2017-07-09T11:33:00.040Z,27.91
2017-07-09T11:35:25.703Z,27.04
2017-07-09T11:37:52.491Z,29.03
2017-07-09T11:40:19.393Z,29.39
2017-07-09T11:42:46.325Z,30.07
2017-07-09T11:45:15.363Z,30.73
2017-07-09T11:47:41.033Z,29.13
2017-07-09T11:50:06.737Z,29.05
2017-07-09T11:52:32.878Z,28.05
2017-07-09T11:55:01.153Z,28.16
2017-07-09T11:57:26.777Z,27.22
2017-07-09T11:59:52.403Z,26.82
2017-07-09T12:02:18.233Z,27.11
2017-07-09T12:06:20.349Z,29.65
2017-07-09T12:08:46.012Z,30.23
2017-07-09T12:11:11.680Z,29.17
2017-07-09T12:13:37.816Z,28.18
2017-07-09T12:16:03.014Z,29.09
2017-07-09T12:18:28.737Z,28.09
2017-07-09T12:20:54.421Z,27.29
2017-07-09T12:23:20.194Z,27.55
2017-07-09T12:25:55.155Z,27.93
2017-07-09T12:28:21.309Z,27.23
2017-07-09T12:30:48.377Z,27.15
2017-07-09T12:33:14.184Z,27.23
2017-07-09T12:35:39.925Z,28.3
2017-07-09T12:38:07.801Z,29.38
2017-07-09T12:40:33.405Z,30.68
2017-07-09T12:42:59.365Z,30.96
2017-07-09T12:47:01.688Z,31.67
2017-07-09T12:49:27.573Z,30.71
2017-07-09T12:51:53.585Z,31.68
2017-07-09T12:54:19.348Z,33.11
2017-07-09T12:56:45.275Z,32.07
2017-07-09T12:59:11.065Z,31.95
2017-07-09T13:01:36.601Z,33.22
2017-07-09T13:04:02.151Z,33.28
2017-07-09T13:06:27.659Z,33.79
2017-07-09T13:08:44.644Z,34.49
2017-07-09T13:11:10.377Z,33.15
2017-07-09T13:13:27.264Z,30.79
2017-07-09T13:15:53.025Z,30.2
2017-07-09T13:18:18.534Z,30.98
2017-07-09T13:20:44.092Z,31.56
2017-07-09T13:23:09.552Z,31.19
2017-07-09T13:25:35.137Z,31.85
2017-07-09T13:28:00.674Z,30.69
2017-07-09T13:30:26.216Z,31.24
2017-07-09T13:32:51.822Z,31.24
2017-07-09T13:35:17.368Z,31.72
2017-07-09T13:37:42.868Z,32.29
2017-07-09T13:40:08.319Z,32.41
2017-07-09T13:42:33.880Z,32.98
2017-07-09T13:44:59.437Z,33.77
2017-07-09T13:47:24.854Z,34.13
2017-07-09T13:49:50.243Z,34.15
2017-07-09T13:53:44.228Z,35.47
2017-07-09T13:55:57.367Z,35.1
2017-07-09T13:58:17.945Z,35.51
2017-07-09T14:00:43.586Z,35.03
2017-07-09T14:03:11.268Z,35.9
2017-07-09T14:05:36.892Z,36.26
2017-07-09T14:09:38.094Z,36.75
2017-07-09T14:12:03.513Z,36.28
2017-07-09T14:14:28.929Z,36.08
2017-07-09T14:16:54.261Z,36.57
2017-07-09T14:19:19.602Z,37.16
2017-07-09T14:21:44.945Z,36.97
2017-07-09T14:24:10.233Z,37.65
2017-07-09T14:26:35.569Z,38.01
2017-07-09T14:29:00.901Z,38.6
2017-07-09T14:31:26.223Z,37.72
2017-07-09T14:33:51.497Z,38.68
2017-07-09T14:36:16.813Z,39.09
2017-07-09T14:38:42.073Z,38.62
2017-07-09T14:41:07.363Z,37.95
2017-07-09T14:43:39.146Z,38.42
2017-07-09T14:46:01.960Z,37.84
2017-07-09T14:48:27.288Z,38.92
2017-07-09T14:50:52.610Z,38.62
2017-07-09T14:53:17.932Z,38.92
2017-07-09T14:55:43.195Z,39.7
2017-07-09T14:57:53.498Z,40.96
2017-07-09T15:00:18.957Z,38.7
2017-07-09T15:02:44.288Z,37.13
2017-07-09T15:05:09.554Z,36.85
2017-07-09T15:07:34.848Z,36.95
2017-07-09T15:10:00.199Z,37.7
2017-07-09T15:12:25.514Z,37.52
2017-07-09T15:14:50.886Z,37.23
2017-07-09T15:17:01.466Z,37.13
2017-07-09T15:19:26.783Z,38.01
2017-07-09T15:21:28.740Z,37.82
2017-07-09T15:23:45.681Z,38.31
2017-07-09T15:26:10.917Z,38.13
2017-07-09T15:28:36.395Z,37.93
2017-07-09T15:31:01.712Z,36.99
2017-07-09T15:33:27.139Z,36.88
2017-07-09T15:35:59.242Z,37.01
2017-07-09T15:38:24.691Z,38.05
2017-07-09T15:40:50.041Z,37.87
2017-07-09T15:43:15.307Z,37.48
2017-07-09T15:45:40.673Z,37.99
2017-07-09T15:48:06.098Z,38.36
2017-07-09T15:50:31.302Z,38.46
2017-07-09T15:52:41.583Z,38.46
2017-07-09T15:55:06.874Z,38.64
2017-07-09T15:57:32.146Z,39.95
2017-07-09T15:59:48.911Z,40.72
2017-07-09T16:02:05.648Z,41
2017-07-09T16:04:15.942Z,41.21
2017-07-09T16:06:32.712Z,41.56
2017-07-09T16:08:58.306Z,41.68
2017-07-09T16:11:08.448Z,41.29
2017-07-09T16:13:35.154Z,40.63
2017-07-09T16:16:00.501Z,40.94
2017-07-09T16:20:11.591Z,42.84
2017-07-09T16:22:44.275Z,42.43
2017-07-09T16:25:09.377Z,42.74
2017-07-09T16:27:34.739Z,42.72
2017-07-09T16:30:00.046Z,41.71
2017-07-09T16:32:25.461Z,41.11
2017-07-09T16:34:37.279Z,41.11
2017-07-09T16:37:03.056Z,43.19
2017-07-09T16:39:28.075Z,43.88
2017-07-09T16:41:53.205Z,43.29
2017-07-09T16:44:18.426Z,43.85
2017-07-09T16:46:43.492Z,42.6
2017-07-09T16:49:08.788Z,44.32
2017-07-09T16:51:33.819Z,44.54
2017-07-09T16:53:59.231Z,44.05
2017-07-09T16:56:24.471Z,44.32
2017-07-09T16:58:50.096Z,43.95
2017-07-09T17:01:15.280Z,43.09
2017-07-09T17:03:40.467Z,43.09
2017-07-09T17:06:05.529Z,43.04
2017-07-09T17:08:30.587Z,43.21
2017-07-09T17:12:31.990Z,44.19
2017-07-09T17:14:57.585Z,45.27
2017-07-09T17:17:22.686Z,44.31
2017-07-09T17:19:47.766Z,43.94
2017-07-09T17:22:13.016Z,44.04
2017-07-09T17:24:38.109Z,44.9
2017-07-09T17:27:03.177Z,44.9
2017-07-09T17:29:28.525Z,45.86
2017-07-09T17:31:53.699Z,46.44
2017-07-09T17:34:18.763Z,46.54
2017-07-09T17:36:44.138Z,47.2
2017-07-09T17:39:09.041Z,48.26
2017-07-09T17:41:34.137Z,47.67
2017-07-09T17:43:59.301Z,48.04
2017-07-09T17:46:24.482Z,48.33
2017-07-09T17:48:49.517Z,47.87
2017-07-09T17:51:14.710Z,48.53
2017-07-09T17:53:40.513Z,49.41
2017-07-09T17:56:06.718Z,49.68
2017-07-09T17:58:31.896Z,49.77
2017-07-09T18:00:57.045Z,51.03
2017-07-09T18:03:21.971Z,51.98
2017-07-09T18:05:47.063Z,51.95
2017-07-09T18:08:11.986Z,51.59
2017-07-09T18:10:36.874Z,51.59
2017-07-09T18:13:01.746Z,51.86
2017-07-09T18:15:26.807Z,53.97
2017-07-09T18:17:51.795Z,54.46
2017-07-09T18:20:08.217Z,55.48
2017-07-09T18:22:16.166Z,55.38
2017-07-09T18:24:41.059Z,56.46
2017-07-09T18:27:05.961Z,56.14
2017-07-09T18:29:30.853Z,57.86
2017-07-09T18:31:47.205Z,57.18
2017-07-09T18:34:12.034Z,57.54
2017-07-09T18:36:36.858Z,57.74
2017-07-09T18:39:01.684Z,57.93
2017-07-09T18:41:26.505Z,58.61
2017-07-09T18:43:51.309Z,57.84
2017-07-09T18:46:16.122Z,59.1
2017-07-09T18:48:32.472Z,58.91
2017-07-09T18:50:57.254Z,58.91
2017-07-09T18:53:22.104Z,59.39
2017-07-09T18:55:46.938Z,58.84
2017-07-09T18:58:18.400Z,59.3
2017-07-09T19:00:43.194Z,60.08
2017-07-09T19:03:08.021Z,61.02
2017-07-09T19:05:32.774Z,61.05
2017-07-09T19:07:57.576Z,61.99
2017-07-09T19:10:22.567Z,62.16
2017-07-09T19:12:47.239Z,63.2
2017-07-09T19:15:26.843Z,62.35
2017-07-09T19:17:51.595Z,62.84
2017-07-09T19:20:16.294Z,63.49
2017-07-09T19:22:41.206Z,64.26
2017-07-09T19:25:05.913Z,63.23
2017-07-09T19:27:30.653Z,63.23
2017-07-09T19:29:55.775Z,63.87
2017-07-09T19:32:20.493Z,63.32
2017-07-09T19:34:45.075Z,63.03
2017-07-09T19:37:09.821Z,61.7
2017-07-09T19:39:34.897Z,63.2
2017-07-09T19:41:59.682Z,62.74
2017-07-09T19:44:24.382Z,62.64
2017-07-09T19:46:49.145Z,62.26
2017-07-09T19:49:16.688Z,62.35
2017-07-09T19:51:41.794Z,62.16
2017-07-09T19:55:42.991Z,62.06
2017-07-09T19:58:09.913Z,62.61
2017-07-09T20:00:35.883Z,62.51
2017-07-09T20:03:02.593Z,62.51
2017-07-09T20:05:28.279Z,62.06
2017-07-09T20:07:54.467Z,61.47
2017-07-09T20:36:40.032Z,61.87
2017-07-09T20:39:04.775Z,62.32
2017-07-09T20:41:29.481Z,62.26
2017-07-09T20:43:50.413Z,61.87
2017-07-09T20:46:15.242Z,60.82
2017-07-09T20:48:40.301Z,61.77
2017-07-09T20:51:05.248Z,60.99
2017-07-09T20:53:29.872Z,60.92
2017-07-09T20:55:54.484Z,61.02
2017-07-09T20:58:19.152Z,61.08
2017-07-09T21:00:43.824Z,60.34
2017-07-09T21:03:08.488Z,59.95
2017-07-09T21:05:33.113Z,60.05
2017-07-09T21:07:57.766Z,60.5
2017-07-09T21:10:22.463Z,60.11
2017-07-09T21:12:47.360Z,59.82
2017-07-09T21:14:49.377Z,59.43
2017-07-09T21:17:14.169Z,59.53
2017-07-09T21:19:38.911Z,58.85
2017-07-09T21:22:04.759Z,60.02
2017-07-09T21:24:29.225Z,60.02
2017-07-09T21:26:53.871Z,60.05
2017-07-09T21:29:18.495Z,60.02
2017-07-09T21:31:43.166Z,61.15
2017-07-09T21:34:07.852Z,62.71
2017-07-09T21:36:32.561Z,62.48
2017-07-09T21:38:57.245Z,62.97
2017-07-09T21:41:21.865Z,63.45
2017-07-09T21:43:46.540Z,64.2
2017-07-09T21:46:11.184Z,66.5
2017-07-09T21:48:13.463Z,67.08
2017-07-09T21:50:38.111Z,68.79
2017-07-09T21:53:02.667Z,71.09
2017-07-09T21:55:27.262Z,71.83
2017-07-09T21:57:43.367Z,72.61
2017-07-09T22:00:07.901Z,71.86
2017-07-09T22:02:32.421Z,71.28
2017-07-09T22:04:56.915Z,71.67
2017-07-09T22:07:21.406Z,73.09
2017-07-09T22:09:45.855Z,73.38
2017-07-09T22:12:10.326Z,72.71
2017-07-09T22:14:34.787Z,72.89
2017-07-09T22:16:59.302Z,72.86
2017-07-09T22:19:23.789Z,72.67
2017-07-09T22:21:48.255Z,72.67
2017-07-09T22:24:12.817Z,72.67
2017-07-09T22:26:37.277Z,72.61
2017-07-09T22:28:53.265Z,73.05
2017-07-09T22:31:17.690Z,72.96
2017-07-09T22:33:44.131Z,73.21
2017-07-09T22:36:08.500Z,73.15
2017-07-09T22:38:24.495Z,73.99
2017-07-09T22:41:04.549Z,73.31
2017-07-09T22:43:28.995Z,73.83
2017-07-09T22:46:02.056Z,73.89
2017-07-09T22:48:26.503Z,73.44
2017-07-09T22:50:42.480Z,74.47
2017-07-09T22:53:06.933Z,74.38
2017-07-09T22:55:31.335Z,74.76
2017-07-09T22:57:55.799Z,74.96
2017-07-09T23:00:27.051Z,73.79
2017-07-09T23:02:43.008Z,73.44
2017-07-09T23:06:43.652Z,73.73
2017-07-09T23:09:08.078Z,73.25
2017-07-09T23:11:32.506Z,72.96
2017-07-09T23:14:05.571Z,73.35
2017-07-09T23:16:29.977Z,72.77
2017-07-09T23:18:54.408Z,73.15
2017-07-09T23:21:18.841Z,72.8
2017-07-09T23:23:43.290Z,73.09
2017-07-09T23:26:09.768Z,73.35
2017-07-09T23:28:34.206Z,73.54
2017-07-09T23:31:00.693Z,72.61
2017-07-09T23:33:25.142Z,72.89
2017-07-09T23:35:41.103Z,72.89
2017-07-09T23:38:06.592Z,71.93
2017-07-09T23:40:31.081Z,71.54
2017-07-09T23:42:56.600Z,71.44
2017-07-09T23:45:22.117Z,71.09
2017-07-09T23:47:46.610Z,69.93
2017-07-09T23:50:11.067Z,69.67
2017-07-09T23:52:35.539Z,69.57
2017-07-09T23:54:59.988Z,68.99
2017-07-09T23:57:24.425Z,68.89
2017-07-09T23:59:49.042Z,68.89
